Time;durP1;ratioP1;P1;durP2;ratioP2;P2;SDS_P1;SDS_P2;PMS_P1;PMS_P2;Temp;Humidity;BMP_temperature;BMP_pressure;BME280_temperature;BME280_humidity;BME280_pressure;Samples;Min_cycle;Max_cycle;Signal;HPM_P1;HPM_P2
2021/08/05 04:01:11;;;;;;;6.03;5.07;;;16.60;99.90;;;;;;5680834;23;20465;-67
2021/08/05 04:03:38;;;;;;;7.13;5.80;;;16.60;99.90;;;;;;5012401;28;20450;-67
2021/08/05 04:06:05;;;;;;;5.43;4.93;;;16.50;99.90;;;;;;4995726;28;20460;-67
2021/08/05 04:08:31;;;;;;;5.37;4.93;;;16.60;99.90;;;;;;4995535;28;20449;-67
2021/08/05 04:10:58;;;;;;;5.57;5.17;;;16.60;99.90;;;;;;4995331;28;20485;-67
2021/08/05 04:13:25;;;;;;;6.20;5.70;;;16.60;99.90;;;;;;4994580;28;20460;-66
2021/08/05 04:15:52;;;;;;;6.13;5.73;;;16.60;99.90;;;;;;4999534;28;20461;-66
2021/08/05 04:18:20;;;;;;;7.07;6.37;;;16.60;99.90;;;;;;5003106;28;20445;-67
2021/08/05 04:20:46;;;;;;;8.07;7.37;;;16.60;99.90;;;;;;5003216;28;20469;-67
2021/08/05 04:23:13;;;;;;;7.83;7.10;;;16.60;99.90;;;;;;4996317;28;20454;-67
2021/08/05 04:25:40;;;;;;;8.10;7.40;;;16.60;99.90;;;;;;4996207;28;20461;-66
2021/08/05 04:28:07;;;;;;;7.40;6.90;;;16.60;99.90;;;;;;4995735;28;20508;-66
2021/08/05 04:30:34;;;;;;;8.03;7.33;;;16.60;99.90;;;;;;4995972;28;20490;-66
2021/08/05 04:33:00;;;;;;;7.40;6.73;;;16.70;99.90;;;;;;4995052;28;20500;-67
2021/08/05 04:35:29;;;;;;;7.97;7.30;;;16.70;99.90;;;;;;4995358;28;20480;-66
2021/08/05 04:37:57;;;;;;;8.60;7.87;;;16.70;99.90;;;;;;4994780;28;20465;-66
2021/08/05 04:40:25;;;;;;;10.37;9.33;;;16.80;99.90;;;;;;4995146;28;20457;-66
2021/08/05 04:42:52;;;;;;;9.47;8.50;;;16.80;99.90;;;;;;4994712;28;20814;-67
2021/08/05 04:45:20;;;;;;;10.70;9.80;;;16.90;99.90;;;;;;4995007;28;20453;-67
2021/08/05 04:47:51;;;;;;;10.43;9.23;;;16.90;99.90;;;;;;4994886;28;20460;-66
2021/08/05 04:50:18;;;;;;;8.50;7.80;;;17.00;99.90;;;;;;4994829;28;20508;-66
2021/08/05 04:52:46;;;;;;;9.37;7.80;;;17.00;99.90;;;;;;4994481;28;20885;-66
2021/08/05 04:55:13;;;;;;;9.40;8.50;;;17.00;99.90;;;;;;4994786;28;20454;-66
2021/08/05 04:57:47;;;;;;;8.80;8.00;;;17.10;99.90;;;;;;4995013;28;20461;-67
2021/08/05 05:00:14;;;;;;;9.23;8.33;;;17.10;99.90;;;;;;4994762;28;20448;-66
2021/08/05 05:02:41;;;;;;;9.60;8.70;;;17.20;99.90;;;;;;4994927;28;20476;-67
2021/08/05 05:05:08;;;;;;;9.57;8.70;;;17.20;99.90;;;;;;4994493;28;20457;-67
2021/08/05 05:07:35;;;;;;;8.60;7.40;;;17.30;99.90;;;;;;4994635;28;20460;-68
2021/08/05 05:10:03;;;;;;;8.63;7.80;;;17.30;99.90;;;;;;4994292;28;20457;-68
2021/08/05 05:12:30;;;;;;;9.20;6.70;;;17.40;99.90;;;;;;4994304;28;20478;-68
2021/08/05 05:14:57;;;;;;;8.87;8.07;;;17.50;99.90;;;;;;4994406;28;20458;-68
2021/08/05 05:17:23;;;;;;;8.60;7.80;;;17.60;99.90;;;;;;4994696;28;20445;-68
2021/08/05 05:19:50;;;;;;;7.37;6.77;;;17.60;99.90;;;;;;4994036;28;20895;-68
2021/08/05 05:22:17;;;;;;;7.30;6.60;;;17.70;99.90;;;;;;4994143;28;20480;-67
2021/08/05 05:24:44;;;;;;;8.40;6.53;;;17.90;99.90;;;;;;4994124;28;20889;-67
2021/08/05 05:27:12;;;;;;;8.23;6.30;;;18.00;99.90;;;;;;4994167;28;20454;-67
2021/08/05 05:29:40;;;;;;;7.37;6.77;;;18.10;99.90;;;;;;4993712;28;20454;-67
2021/08/05 05:32:08;;;;;;;7.00;6.50;;;18.20;99.90;;;;;;4994039;28;20477;-67
2021/08/05 05:34:34;;;;;;;6.67;6.17;;;18.30;99.90;;;;;;4994227;28;20450;-67
2021/08/05 05:37:01;;;;;;;7.53;6.13;;;18.30;99.90;;;;;;4994277;28;20438;-67
2021/08/05 05:39:28;;;;;;;7.57;6.93;;;18.30;99.90;;;;;;4994217;28;20449;-68
2021/08/05 05:41:55;;;;;;;8.73;6.20;;;18.30;99.90;;;;;;4994056;28;20875;-67
2021/08/05 05:44:23;;;;;;;7.13;6.53;;;18.30;99.90;;;;;;4994492;28;20437;-67
2021/08/05 05:46:50;;;;;;;7.23;6.53;;;18.30;99.90;;;;;;4994166;28;20469;-67
2021/08/05 05:49:16;;;;;;;7.43;6.50;;;18.30;99.90;;;;;;4993985;28;20460;-67
2021/08/05 05:51:43;;;;;;;7.70;7.00;;;18.30;99.90;;;;;;4993955;28;20474;-67
2021/08/05 05:54:10;;;;;;;7.60;6.90;;;18.20;99.90;;;;;;4994160;28;20461;-67
2021/08/05 05:56:37;;;;;;;6.87;6.27;;;18.30;99.90;;;;;;4994226;28;20445;-67
2021/08/05 05:59:03;;;;;;;6.93;6.33;;;18.30;99.90;;;;;;4994483;28;20497;-67
2021/08/05 06:01:31;;;;;;;7.70;6.90;;;18.30;99.90;;;;;;4993714;28;20540;-67
2021/08/05 06:03:58;;;;;;;8.50;6.60;;;18.40;99.90;;;;;;4993955;28;20460;-67
2021/08/05 06:06:25;;;;;;;8.37;6.60;;;18.50;99.90;;;;;;4993633;28;20454;-67
2021/08/05 06:08:52;;;;;;;6.73;6.13;;;18.50;99.90;;;;;;4993919;28;20506;-67
2021/08/05 06:11:19;;;;;;;7.47;6.73;;;18.70;99.90;;;;;;4993933;28;20532;-67
2021/08/05 06:13:46;;;;;;;7.23;6.53;;;18.90;99.90;;;;;;4993987;28;20462;-68
2021/08/05 06:16:13;;;;;;;7.37;6.77;;;19.10;99.90;;;;;;4994220;28;20438;-67
2021/08/05 06:18:41;;;;;;;6.00;5.50;;;19.50;99.90;;;;;;4993820;28;20512;-65
2021/08/05 06:21:07;;;;;;;6.03;5.43;;;20.00;99.90;;;;;;4993586;28;20474;-65
2021/08/05 06:23:34;;;;;;;4.73;4.33;;;20.60;99.90;;;;;;4993935;28;20453;-65
2021/08/05 06:26:01;;;;;;;5.23;4.70;;;21.20;99.90;;;;;;4996432;28;20446;-65
2021/08/05 06:28:27;;;;;;;4.73;4.20;;;21.50;99.90;;;;;;4994576;28;20465;-65
2021/08/05 06:30:54;;;;;;;5.53;4.73;;;21.70;99.90;;;;;;4993898;28;20540;-65
2021/08/05 06:33:21;;;;;;;6.87;6.27;;;22.10;99.90;;;;;;4993706;28;20485;-64
2021/08/05 06:35:49;;;;;;;5.73;5.07;;;22.60;99.90;;;;;;4994875;28;20461;-64
2021/08/05 06:38:17;;;;;;;8.50;4.73;;;23.20;99.90;;;;;;4997242;28;20437;-66
2021/08/05 06:40:44;;;;;;;5.50;4.60;;;23.70;99.90;;;;;;4997244;28;20473;-64
2021/08/05 06:43:10;;;;;;;5.07;4.40;;;23.50;99.90;;;;;;4996982;28;20915;-66
2021/08/05 06:45:38;;;;;;;5.13;4.73;;;23.80;99.90;;;;;;4996931;28;20938;-65
2021/08/05 06:48:05;;;;;;;5.10;4.60;;;23.80;99.90;;;;;;4999614;28;20803;-67
2021/08/05 06:50:31;;;;;;;4.33;4.03;;;24.30;99.90;;;;;;4999263;28;20478;-66
2021/08/05 06:53:00;;;;;;;4.07;3.77;;;24.50;99.90;;;;;;4997381;28;20477;-66
2021/08/05 06:55:27;;;;;;;4.57;3.87;;;24.90;99.90;;;;;;4996978;28;20981;-67
2021/08/05 06:57:53;;;;;;;5.33;4.20;;;25.40;99.90;;;;;;4997549;28;20457;-68
2021/08/05 07:00:20;;;;;;;3.93;3.60;;;26.00;99.90;;;;;;4996564;28;20461;-68
2021/08/05 07:02:47;;;;;;;6.43;3.80;;;26.20;99.90;;;;;;4996852;28;20435;-68
2021/08/05 07:05:14;;;;;;;3.73;3.43;;;26.50;99.90;;;;;;4996835;28;20458;-66
2021/08/05 07:07:41;;;;;;;4.37;4.07;;;26.80;99.90;;;;;;4996808;28;20434;-66
2021/08/05 07:10:10;;;;;;;3.63;3.43;;;26.40;99.90;;;;;;4996875;28;20508;-66
2021/08/05 07:12:37;;;;;;;4.20;3.90;;;26.00;99.90;;;;;;4996311;28;20820;-68
2021/08/05 07:15:04;;;;;;;3.73;3.43;;;25.70;99.90;;;;;;4996823;28;20469;-68
2021/08/05 07:17:31;;;;;;;4.60;3.80;;;25.30;99.90;;;;;;4996771;28;20458;-67
2021/08/05 07:19:58;;;;;;;3.53;3.23;;;25.00;99.90;;;;;;5000189;28;20442;-68
2021/08/05 07:22:24;;;;;;;4.13;3.73;;;24.80;99.90;;;;;;5002828;28;20466;-66
2021/08/05 07:24:51;;;;;;;5.03;3.07;;;24.60;99.90;;;;;;4999461;28;20465;-66
2021/08/05 07:27:19;;;;;;;3.87;3.50;;;24.00;99.90;;;;;;4996449;28;20461;-66
2021/08/05 07:29:46;;;;;;;3.90;3.33;;;23.50;99.90;;;;;;4996031;28;20457;-66
2021/08/05 07:32:13;;;;;;;4.23;3.57;;;23.50;99.90;;;;;;4995863;28;20998;-66
2021/08/05 07:34:39;;;;;;;4.17;3.80;;;23.30;99.90;;;;;;4996213;28;20458;-66
2021/08/05 07:37:06;;;;;;;7.87;3.57;;;23.10;99.90;;;;;;4996093;28;20454;-67
2021/08/05 07:39:33;;;;;;;5.57;4.13;;;23.00;99.90;;;;;;4995911;28;20442;-66
2021/08/05 07:42:00;;;;;;;3.90;3.60;;;23.00;99.90;;;;;;4996314;28;20474;-66
2021/08/05 07:44:28;;;;;;;3.80;3.50;;;22.90;99.90;;;;;;4996300;28;20809;-67
2021/08/05 07:46:54;;;;;;;4.00;3.70;;;22.90;99.90;;;;;;4996050;28;20454;-67
2021/08/05 07:49:21;;;;;;;4.73;4.23;;;22.90;99.90;;;;;;4995705;28;20933;-67
2021/08/05 07:51:48;;;;;;;4.07;3.77;;;22.90;99.90;;;;;;4996186;28;20477;-67
2021/08/05 07:54:14;;;;;;;4.40;4.10;;;22.80;99.90;;;;;;4996146;28;20478;-67
2021/08/05 07:56:41;;;;;;;4.73;3.77;;;23.10;99.90;;;;;;4995937;28;20458;-67
2021/08/05 07:59:08;;;;;;;3.73;3.43;;;23.20;99.90;;;;;;4996026;28;20461;-67
2021/08/05 08:01:36;;;;;;;5.17;3.37;;;23.40;99.90;;;;;;4995461;28;20559;-67
2021/08/05 08:04:03;;;;;;;4.60;4.23;;;23.10;99.90;;;;;;4995872;28;20458;-67
2021/08/05 08:06:29;;;;;;;4.00;3.70;;;23.00;99.90;;;;;;4995621;28;20457;-67
2021/08/05 08:08:56;;;;;;;4.07;3.30;;;22.80;99.90;;;;;;4995826;28;20468;-67
2021/08/05 08:11:23;;;;;;;4.50;3.57;;;22.80;99.90;;;;;;4995723;28;20473;-67
2021/08/05 08:13:51;;;;;;;3.73;3.30;;;22.60;99.90;;;;;;4995961;28;21024;-67
2021/08/05 08:16:20;;;;;;;4.03;3.73;;;22.60;99.90;;;;;;4995751;28;20461;-67
2021/08/05 08:18:48;;;;;;;4.53;4.13;;;22.70;99.90;;;;;;4995479;28;20490;-67
2021/08/05 08:21:15;;;;;;;4.33;4.03;;;22.70;99.90;;;;;;4995904;28;20469;-67
2021/08/05 08:23:42;;;;;;;4.53;4.23;;;22.90;99.90;;;;;;4996313;28;20454;-67
2021/08/05 08:26:09;;;;;;;3.97;3.67;;;22.90;99.90;;;;;;4996195;28;20450;-67
2021/08/05 08:28:36;;;;;;;4.20;3.80;;;22.80;99.90;;;;;;4995930;28;20442;-67
2021/08/05 08:31:03;;;;;;;4.30;3.90;;;22.80;99.90;;;;;;4995481;28;20848;-67
2021/08/05 08:33:29;;;;;;;6.30;3.93;;;22.90;99.90;;;;;;4995765;28;20545;-67
2021/08/05 08:35:58;;;;;;;4.10;3.80;;;22.90;99.90;;;;;;5000324;28;20453;-67
2021/08/05 08:38:25;;;;;;;4.33;3.73;;;23.00;99.90;;;;;;4995271;28;20871;-67
2021/08/05 08:40:55;;;;;;;3.83;3.53;;;23.20;99.90;;;;;;4994735;28;20473;-67
2021/08/05 08:43:21;;;;;;;3.93;3.63;;;23.50;99.90;;;;;;4994730;28;20941;-67
2021/08/05 08:45:51;;;;;;;4.27;3.97;;;23.60;99.90;;;;;;4994924;28;20453;-67
2021/08/05 08:48:18;;;;;;;4.60;4.20;;;23.80;99.90;;;;;;4994948;28;20494;-67
2021/08/05 08:50:45;;;;;;;4.00;3.70;;;24.10;99.90;;;;;;4995160;28;20474;-67
2021/08/05 08:53:17;;;;;;;4.73;4.13;;;24.30;99.90;;;;;;4995191;28;20478;-67
2021/08/05 08:55:45;;;;;;;4.03;3.53;;;24.60;99.90;;;;;;4995046;28;20442;-67
2021/08/05 08:58:16;;;;;;;4.90;4.40;;;24.80;99.90;;;;;;4995033;28;20816;-67
2021/08/05 09:00:43;;;;;;;4.17;3.87;;;25.00;99.90;;;;;;4996391;28;20568;-67
2021/08/05 09:03:09;;;;;;;4.00;3.60;;;25.00;99.90;;;;;;4996014;28;20489;-67
2021/08/05 09:05:36;;;;;;;4.37;4.00;;;25.10;99.90;;;;;;4995686;28;20457;-67
2021/08/05 09:08:04;;;;;;;3.97;3.67;;;24.80;99.90;;;;;;4996331;28;20461;-67
2021/08/05 09:10:33;;;;;;;4.03;3.70;;;24.70;99.90;;;;;;4994945;28;20973;-67
2021/08/05 09:13:02;;;;;;;4.10;3.80;;;24.50;99.90;;;;;;4995417;28;20468;-67
2021/08/05 09:15:37;;;;;;;4.57;4.10;;;24.50;99.90;;;;;;4995105;28;20477;-67
2021/08/05 09:18:05;;;;;;;4.10;3.50;;;24.40;99.90;;;;;;4994853;28;20508;-67
2021/08/05 09:20:32;;;;;;;3.80;3.50;;;24.40;99.90;;;;;;4994811;28;20540;-67
2021/08/05 09:22:59;;;;;;;4.67;4.00;;;24.40;99.90;;;;;;4994841;28;20509;-67
2021/08/05 09:25:32;;;;;;;4.10;3.80;;;24.50;99.90;;;;;;4994965;28;20545;-67
2021/08/05 09:28:12;;;;;;;3.33;3.13;;;24.50;99.90;;;;;;4994650;28;20434;-67
2021/08/05 09:30:40;;;;;;;3.43;3.13;;;24.70;99.90;;;;;;4994735;28;20526;-67
2021/08/05 09:33:12;;;;;;;3.70;3.40;;;24.90;99.90;;;;;;4995470;28;20477;-67
2021/08/05 09:35:41;;;;;;;4.40;3.70;;;25.90;99.90;;;;;;5006965;28;20445;-67
2021/08/05 09:38:20;;;;;;;3.40;3.20;;;26.90;99.90;;;;;;5009446;28;20461;-67
2021/08/05 09:40:49;;;;;;;5.00;3.03;;;27.90;99.90;;;;;;4995603;28;20505;-67
2021/08/05 09:43:24;;;;;;;2.90;2.80;;;28.30;99.90;;;;;;4994973;28;20803;-67
2021/08/05 09:45:51;;;;;;;3.40;3.20;;;28.10;99.90;;;;;;4994735;28;20926;-67
2021/08/05 09:51:57;;;;;;;3.63;3.33;;;28.20;99.90;;;;;;4995526;28;20971;-66
2021/08/05 09:55:19;;;;;;;3.47;3.27;;;28.10;99.90;;;;;;4993685;28;20480;-66
2021/08/05 09:57:57;;;;;;;3.77;3.40;;;27.80;99.90;;;;;;4993668;28;20454;-66
2021/08/05 10:00:24;;;;;;;4.50;3.97;;;27.30;99.90;;;;;;4994009;28;20442;-66
2021/08/05 10:02:53;;;;;;;3.57;3.30;;;27.00;99.90;;;;;;4994116;28;20442;-66
2021/08/05 10:05:22;;;;;;;3.33;3.03;;;26.60;99.90;;;;;;4994013;28;20453;-66
2021/08/05 10:07:50;;;;;;;3.30;3.10;;;26.30;99.90;;;;;;4994039;28;20813;-66
2021/08/05 10:10:19;;;;;;;3.10;2.90;;;26.20;99.90;;;;;;4994180;28;20462;-66
2021/08/05 10:12:52;;;;;;;2.87;2.67;;;26.10;99.90;;;;;;4997853;28;20548;-66
2021/08/05 10:15:21;;;;;;;3.00;2.80;;;26.10;99.90;;;;;;4997574;28;20434;-66
2021/08/05 10:17:51;;;;;;;7.70;3.30;;;26.30;99.90;;;;;;4997587;28;20450;-66
2021/08/05 10:20:18;;;;;;;3.33;2.97;;;26.30;99.90;;;;;;4997233;28;20442;-66
2021/08/05 10:22:45;;;;;;;4.00;3.70;;;26.50;99.90;;;;;;4999589;28;20445;-65
2021/08/05 10:25:15;;;;;;;3.13;2.93;;;27.30;99.90;;;;;;5003549;28;20449;-65
2021/08/05 10:27:43;;;;;;;3.40;3.10;;;27.80;99.90;;;;;;5000922;28;20461;-65
2021/08/05 10:30:13;;;;;;;5.60;3.40;;;28.50;99.90;;;;;;4997083;28;21001;-66
2021/08/05 10:32:40;;;;;;;3.60;3.30;;;29.30;99.90;;;;;;4997354;28;20445;-66
2021/08/05 10:35:09;;;;;;;3.63;3.33;;;29.60;96.20;;;;;;4997269;28;20496;-66
2021/08/05 10:37:36;;;;;;;2.80;2.67;;;28.90;96.00;;;;;;4997398;28;20457;-66
2021/08/05 10:40:05;;;;;;;3.80;2.87;;;28.20;97.10;;;;;;4997593;28;20466;-66
2021/08/05 10:42:33;;;;;;;3.30;3.10;;;27.40;95.90;;;;;;5000585;28;20470;-66
2021/08/05 10:45:00;;;;;;;3.60;2.70;;;27.20;97.50;;;;;;5003442;28;20822;-66
2021/08/05 10:47:32;;;;;;;3.30;3.10;;;26.90;99.00;;;;;;4997362;28;20473;-66
2021/08/05 10:50:03;;;;;;;2.80;2.60;;;26.40;98.70;;;;;;4997125;28;20438;-66
2021/08/05 10:52:42;;;;;;;3.80;3.50;;;26.40;99.90;;;;;;4997021;28;20484;-66
2021/08/05 10:55:23;;;;;;;3.47;2.20;;;26.30;99.90;;;;;;4996787;28;20477;-65
2021/08/05 10:58:12;;;;;;;2.90;2.70;;;26.30;99.90;;;;;;4997486;28;20437;-64
2021/08/05 11:01:03;;;;;;;2.90;2.57;;;26.50;99.90;;;;;;4996459;28;20503;-65
2021/08/05 11:03:44;;;;;;;2.67;2.47;;;26.90;99.40;;;;;;4997440;28;20458;-64
2021/08/05 11:06:31;;;;;;;2.60;2.40;;;27.00;98.80;;;;;;4997402;28;20492;-64
2021/08/05 11:09:25;;;;;;;2.43;2.33;;;26.80;97.20;;;;;;4997128;28;20903;-64
2021/08/05 11:11:51;;;;;;;2.60;2.50;;;26.70;98.50;;;;;;4996949;28;20480;-65
2021/08/05 11:14:40;;;;;;;2.20;2.10;;;26.40;98.90;;;;;;4996585;28;20474;-65
2021/08/05 11:17:08;;;;;;;2.53;2.23;;;26.30;98.80;;;;;;4996223;28;20969;-64
2021/08/05 11:19:42;;;;;;;2.70;2.50;;;26.20;99.90;;;;;;4996610;28;20438;-65
2021/08/05 11:22:49;;;;;;;2.60;2.50;;;26.10;99.90;;;;;;4995858;28;20473;-65
2021/08/05 11:25:16;;;;;;;2.80;2.60;;;26.50;99.90;;;;;;4996501;28;20434;-65
2021/08/05 11:27:46;;;;;;;2.20;2.10;;;26.90;98.80;;;;;;4996520;28;20796;-65
2021/08/05 11:30:45;;;;;;;2.60;2.40;;;26.90;99.90;;;;;;4996558;28;20446;-65
2021/08/05 11:34:02;;;;;;;2.30;2.13;;;27.30;97.60;;;;;;4996430;28;20446;-65
2021/08/05 11:36:43;;;;;;;2.50;2.40;;;27.60;97.20;;;;;;4996246;28;20438;-65
2021/08/05 11:39:20;;;;;;;2.30;2.20;;;27.60;96.20;;;;;;4996150;28;20496;-65
2021/08/05 11:41:55;;;;;;;2.03;1.93;;;27.70;96.40;;;;;;4996141;28;20480;-65
2021/08/05 11:44:37;;;;;;;2.33;2.23;;;27.90;98.60;;;;;;4995711;28;20861;-65
2021/08/05 11:47:27;;;;;;;2.60;2.40;;;28.30;96.10;;;;;;4996045;28;20442;-65
2021/08/05 11:49:59;;;;;;;1.90;1.80;;;28.20;95.20;;;;;;4995994;28;20441;-65
2021/08/05 11:52:35;;;;;;;2.27;2.13;;;28.10;93.30;;;;;;4995689;28;20487;-65
2021/08/05 11:55:05;;;;;;;2.27;2.17;;;28.10;94.20;;;;;;4996104;28;20497;-65
2021/08/05 11:57:37;;;;;;;2.53;2.33;;;28.40;94.70;;;;;;4995994;28;20457;-65
2021/08/05 12:00:07;;;;;;;6.10;2.13;;;28.40;93.40;;;;;;4995949;28;20442;-65
2021/08/05 12:02:34;;;;;;;1.90;1.80;;;28.50;93.70;;;;;;4995545;28;20564;-65
2021/08/05 12:05:00;;;;;;;2.00;1.90;;;28.60;93.70;;;;;;4995329;28;20450;-65
2021/08/05 12:07:30;;;;;;;1.63;1.53;;;28.90;93.60;;;;;;4995837;28;20458;-65
2021/08/05 12:10:01;;;;;;;1.57;1.27;;;29.30;92.60;;;;;;4995652;28;20499;-65
2021/08/05 12:12:29;;;;;;;1.87;1.60;;;29.40;94.00;;;;;;4995659;28;20845;-65
2021/08/05 12:14:57;;;;;;;2.30;1.80;;;29.30;92.30;;;;;;4995656;28;20473;-65
2021/08/05 12:17:35;;;;;;;2.13;2.00;;;29.40;93.30;;;;;;4995674;28;20461;-65
2021/08/05 12:20:04;;;;;;;1.50;1.50;;;29.50;93.20;;;;;;4995364;28;20846;-65
2021/08/05 12:22:33;;;;;;;1.70;1.70;;;29.40;90.20;;;;;;4995769;28;20477;-66
2021/08/05 12:25:04;;;;;;;4.07;1.43;;;29.30;89.40;;;;;;5009730;28;20450;-65
2021/08/05 12:27:31;;;;;;;1.97;1.87;;;29.00;90.30;;;;;;5015613;28;20418;-64
2021/08/05 12:30:08;;;;;;;1.83;1.73;;;28.70;90.70;;;;;;4997447;28;20468;-64
2021/08/05 12:32:37;;;;;;;2.30;1.73;;;28.60;91.50;;;;;;4996417;28;20532;-64
2021/08/05 12:35:12;;;;;;;1.60;1.60;;;28.40;91.80;;;;;;4995109;28;20859;-65
2021/08/05 12:37:39;;;;;;;1.50;1.50;;;28.30;90.80;;;;;;4995447;28;20463;-64
2021/08/05 12:40:11;;;;;;;1.80;1.70;;;28.00;91.90;;;;;;4994944;28;20938;-64
2021/08/05 12:42:38;;;;;;;1.40;1.40;;;27.80;92.00;;;;;;4995411;28;20481;-65
2021/08/05 12:45:06;;;;;;;1.93;1.83;;;27.90;94.50;;;;;;4995264;28;20435;-65
2021/08/05 12:47:33;;;;;;;2.60;1.87;;;27.90;91.80;;;;;;4994689;28;20789;-65
2021/08/05 12:50:06;;;;;;;1.53;1.43;;;27.90;94.00;;;;;;4995088;28;20862;-65
2021/08/05 12:52:39;;;;;;;1.53;1.53;;;28.10;94.40;;;;;;4994700;28;20982;-66
2021/08/05 12:55:10;;;;;;;2.13;1.97;;;28.30;94.60;;;;;;4994717;28;20572;-66
2021/08/05 12:57:38;;;;;;;1.60;1.60;;;28.50;93.10;;;;;;4994970;28;20441;-66
2021/08/05 13:00:21;;;;;;;1.80;1.70;;;28.40;93.40;;;;;;4994871;28;20485;-66
2021/08/05 13:02:56;;;;;;;1.90;1.80;;;28.50;92.20;;;;;;4994363;28;20450;-66
2021/08/05 13:05:23;;;;;;;1.80;1.70;;;28.30;92.40;;;;;;4994841;28;20438;-66
2021/08/05 13:07:51;;;;;;;1.80;1.70;;;28.20;92.60;;;;;;4994773;28;20442;-66
2021/08/05 13:10:22;;;;;;;2.10;1.83;;;27.90;92.30;;;;;;4994398;28;21009;-66
2021/08/05 13:12:50;;;;;;;2.20;1.70;;;27.60;93.00;;;;;;4994728;28;20438;-66
2021/08/05 13:15:30;;;;;;;2.07;1.97;;;27.70;93.40;;;;;;4994396;28;20527;-66
2021/08/05 13:18:00;;;;;;;1.60;1.50;;;27.70;94.20;;;;;;4994550;28;20460;-66
2021/08/05 13:20:27;;;;;;;2.00;1.90;;;27.70;95.00;;;;;;4994740;28;20442;-66
2021/08/05 13:22:54;;;;;;;1.67;1.60;;;27.40;93.40;;;;;;4994485;28;20458;-66
2021/08/05 13:25:25;;;;;;;3.53;1.57;;;27.10;93.50;;;;;;4994692;28;20449;-66
2021/08/05 13:28:09;;;;;;;1.97;1.80;;;27.10;95.10;;;;;;4998510;28;20442;-66
2021/08/05 13:30:37;;;;;;;1.53;1.53;;;27.10;96.10;;;;;;5001858;28;20557;-66
2021/08/05 13:33:18;;;;;;;1.50;1.50;;;27.30;96.20;;;;;;4997567;28;20462;-66
2021/08/05 13:35:49;;;;;;;2.10;2.00;;;27.30;95.10;;;;;;4994247;28;20962;-66
2021/08/05 13:38:16;;;;;;;1.70;1.60;;;27.50;94.80;;;;;;4994504;28;20518;-66
2021/08/05 13:40:44;;;;;;;1.70;1.60;;;27.50;93.90;;;;;;4994347;28;20478;-66
2021/08/05 13:43:14;;;;;;;1.70;1.50;;;27.50;94.30;;;;;;4994293;28;20969;-66
2021/08/05 13:45:42;;;;;;;1.57;1.50;;;27.80;94.40;;;;;;4996619;28;20449;-66
2021/08/05 13:48:10;;;;;;;1.60;1.37;;;28.00;95.40;;;;;;4998127;28;20515;-66
2021/08/05 13:50:37;;;;;;;1.90;1.80;;;28.40;94.80;;;;;;4997657;28;21048;-66
2021/08/05 13:53:05;;;;;;;1.30;1.30;;;28.50;93.60;;;;;;4998181;28;20454;-66
2021/08/05 13:55:34;;;;;;;1.17;1.17;;;28.70;95.20;;;;;;4997868;28;21053;-66
2021/08/05 13:58:02;;;;;;;1.23;1.23;;;28.70;93.20;;;;;;4997711;28;20939;-66
2021/08/05 14:00:31;;;;;;;1.50;1.50;;;28.80;95.20;;;;;;4998246;28;20437;-66
2021/08/05 14:02:58;;;;;;;1.30;1.30;;;28.90;92.30;;;;;;4997942;28;20553;-66
2021/08/05 14:05:25;;;;;;;1.37;1.27;;;28.90;90.30;;;;;;4997915;28;20456;-66
2021/08/05 14:07:52;;;;;;;1.33;1.33;;;28.80;89.90;;;;;;4998632;28;20449;-66
2021/08/05 14:10:20;;;;;;;1.73;1.70;;;28.60;90.90;;;;;;4997714;28;20908;-66
2021/08/05 14:12:48;;;;;;;1.40;1.30;;;28.50;90.80;;;;;;4997743;28;20453;-66
2021/08/05 14:15:17;;;;;;;1.67;1.40;;;28.10;90.10;;;;;;4997696;28;20477;-66
2021/08/05 14:17:44;;;;;;;1.30;1.30;;;27.90;91.00;;;;;;4997761;28;20502;-66
2021/08/05 14:20:12;;;;;;;1.47;1.40;;;27.60;91.50;;;;;;4997665;28;20461;-66
2021/08/05 14:22:38;;;;;;;1.27;1.27;;;27.10;92.70;;;;;;4997356;28;20845;-66
2021/08/05 14:25:06;;;;;;;1.87;1.77;;;26.90;92.80;;;;;;4997400;28;20899;-66
2021/08/05 14:27:33;;;;;;;2.23;1.30;;;26.60;92.80;;;;;;4997289;28;20457;-66
2021/08/05 14:29:59;;;;;;;1.40;1.40;;;26.50;93.20;;;;;;4997575;28;20457;-66
2021/08/05 14:32:27;;;;;;;1.40;1.40;;;26.20;92.90;;;;;;4997379;28;20481;-66
2021/08/05 14:34:54;;;;;;;1.33;1.23;;;26.00;93.00;;;;;;4997376;28;20478;-66
2021/08/05 14:37:21;;;;;;;1.37;1.37;;;25.90;93.50;;;;;;4997236;28;20461;-66
2021/08/05 14:39:48;;;;;;;1.40;1.40;;;25.90;94.30;;;;;;4997357;28;20457;-66
2021/08/05 14:42:16;;;;;;;1.10;1.10;;;26.00;93.70;;;;;;4997388;28;20877;-65
2021/08/05 14:44:42;;;;;;;1.60;1.50;;;26.10;95.40;;;;;;4996970;28;20500;-66
2021/08/05 14:47:09;;;;;;;1.80;1.70;;;26.20;95.70;;;;;;4997234;28;20465;-66
2021/08/05 14:49:37;;;;;;;1.50;1.40;;;26.40;95.70;;;;;;4996817;28;20458;-66
2021/08/05 14:52:04;;;;;;;1.80;1.70;;;26.40;94.60;;;;;;4996897;28;20477;-66
2021/08/05 14:54:31;;;;;;;1.60;1.50;;;26.70;95.80;;;;;;4996869;28;20458;-66
2021/08/05 14:56:58;;;;;;;1.37;1.37;;;26.70;95.50;;;;;;4996210;28;20450;-66
2021/08/05 14:59:25;;;;;;;1.40;1.40;;;26.90;95.60;;;;;;4996986;28;20450;-66
2021/08/05 15:01:52;;;;;;;1.10;1.10;;;26.80;92.50;;;;;;4996409;28;20877;-65
2021/08/05 15:04:18;;;;;;;5.70;1.20;;;26.60;92.80;;;;;;4996592;28;20965;-65
2021/08/05 15:06:46;;;;;;;1.40;1.23;;;26.50;92.60;;;;;;4996911;28;20552;-65
2021/08/05 15:09:15;;;;;;;1.40;1.40;;;26.50;93.40;;;;;;4996840;28;20450;-65
2021/08/05 15:11:42;;;;;;;1.10;1.10;;;26.30;93.50;;;;;;4996638;28;20469;-65
2021/08/05 15:14:09;;;;;;;1.17;1.17;;;26.10;93.50;;;;;;4996915;28;20454;-65
2021/08/05 15:16:36;;;;;;;1.70;1.57;;;26.10;93.80;;;;;;4996729;28;20478;-65
2021/08/05 15:19:03;;;;;;;1.40;1.30;;;26.10;94.60;;;;;;4996728;28;20587;-65
2021/08/05 15:21:30;;;;;;;1.57;1.53;;;25.70;95.20;;;;;;4997245;28;20483;-65
2021/08/05 15:23:59;;;;;;;1.67;1.40;;;25.70;96.10;;;;;;4996531;28;20454;-65
2021/08/05 15:26:28;;;;;;;1.53;1.47;;;25.70;96.10;;;;;;4996622;28;20476;-65
2021/08/05 15:28:54;;;;;;;1.40;1.40;;;25.80;96.60;;;;;;4996264;28;20901;-66
2021/08/05 15:31:21;;;;;;;2.50;1.47;;;25.90;95.60;;;;;;4996510;28;20502;-66
2021/08/05 15:33:48;;;;;;;1.53;1.53;;;25.70;95.90;;;;;;4996508;28;20464;-66
2021/08/05 15:36:16;;;;;;;1.10;1.10;;;25.70;96.30;;;;;;4996318;28;20819;-66
2021/08/05 15:38:43;;;;;;;2.90;1.63;;;25.70;96.00;;;;;;4996288;28;20454;-66
2021/08/05 15:41:11;;;;;;;3.27;1.40;;;25.70;96.10;;;;;;4996117;28;20477;-66
2021/08/05 15:43:38;;;;;;;1.30;1.20;;;25.60;96.70;;;;;;4996063;28;20454;-65
2021/08/05 15:46:05;;;;;;;1.10;1.10;;;25.60;96.30;;;;;;4996085;28;20434;-66
2021/08/05 15:48:32;;;;;;;1.50;1.50;;;25.60;96.70;;;;;;4995864;28;20454;-65
2021/08/05 15:50:59;;;;;;;1.57;1.57;;;25.50;96.90;;;;;;4995584;28;20987;-66
2021/08/05 15:53:26;;;;;;;1.23;1.23;;;25.50;97.40;;;;;;4995974;28;20442;-66
2021/08/05 15:55:53;;;;;;;1.20;1.20;;;25.60;97.50;;;;;;4996088;28;20484;-66
2021/08/05 15:58:21;;;;;;;1.77;1.50;;;25.60;97.20;;;;;;4996255;28;20454;-66
2021/08/05 16:00:48;;;;;;;1.70;1.60;;;25.70;97.80;;;;;;4995855;28;20489;-66
2021/08/05 16:03:14;;;;;;;1.70;1.60;;;25.50;97.20;;;;;;4995923;28;20442;-65
2021/08/05 16:05:42;;;;;;;1.57;1.47;;;25.50;97.20;;;;;;4995850;28;20454;-66
2021/08/05 16:08:10;;;;;;;1.80;1.70;;;25.40;97.10;;;;;;4994606;28;20481;-66
2021/08/05 16:10:38;;;;;;;1.50;1.40;;;25.20;96.70;;;;;;4995694;28;20473;-66
2021/08/05 16:13:05;;;;;;;1.40;1.30;;;24.80;98.90;;;;;;4995819;28;20458;-66
2021/08/05 16:15:33;;;;;;;1.50;1.40;;;24.40;99.90;;;;;;4995423;28;20489;-65
2021/08/05 16:18:00;;;;;;;1.40;1.40;;;23.90;99.90;;;;;;4995750;28;20438;-66
2021/08/05 16:20:26;;;;;;;2.23;2.03;;;23.40;99.90;;;;;;4995377;28;20457;-66
2021/08/05 16:22:53;;;;;;;3.60;1.57;;;23.20;99.90;;;;;;4995285;28;20460;-66
2021/08/05 16:25:20;;;;;;;1.80;1.70;;;22.80;99.90;;;;;;4995293;28;20450;-66
2021/08/05 16:27:47;;;;;;;1.23;1.20;;;22.50;99.90;;;;;;4995293;28;20438;-66
2021/08/05 16:30:14;;;;;;;1.80;1.70;;;22.30;99.90;;;;;;4995404;28;20512;-66
2021/08/05 16:32:42;;;;;;;1.33;1.30;;;22.20;99.90;;;;;;4999612;28;20505;-66
2021/08/05 16:35:10;;;;;;;1.20;1.20;;;22.20;99.90;;;;;;5003373;28;20485;-66
2021/08/05 16:37:37;;;;;;;2.10;1.60;;;22.00;99.90;;;;;;4999202;28;20465;-66
2021/08/05 16:40:04;;;;;;;2.60;1.93;;;21.90;99.90;;;;;;4995134;28;20454;-66
2021/08/05 16:42:31;;;;;;;1.50;1.40;;;21.60;99.90;;;;;;4994657;28;21017;-66
2021/08/05 16:44:58;;;;;;;1.60;1.50;;;21.40;99.90;;;;;;4994835;28;20461;-66
2021/08/05 16:47:25;;;;;;;2.40;2.20;;;21.10;99.90;;;;;;4995551;28;20465;-67
2021/08/05 16:49:53;;;;;;;1.70;1.50;;;21.10;99.90;;;;;;4994597;28;20867;-66
2021/08/05 16:52:20;;;;;;;3.90;1.90;;;21.10;99.90;;;;;;4994849;28;20477;-67
2021/08/05 16:54:47;;;;;;;4.33;2.10;;;21.00;99.90;;;;;;4994611;28;20464;-66
2021/08/05 16:57:14;;;;;;;2.93;1.87;;;20.80;99.90;;;;;;4994827;28;20481;-66
2021/08/05 16:59:40;;;;;;;3.53;2.20;;;20.60;99.90;;;;;;4994848;28;20457;-66